Terminal Aerodrome Forecast
Issued by NWS Northern Indiana

Home | Current Version | Previous Version | Text Only | Print | Product List | Glossary On
Versions: 1 2 3 4 5 6 7 8 9 10 11 12
677
FTUS43 KIWX 281120
TAFFWA
TAF
KFWA 281120Z 2812/2912 08003KT P6SM SCT150 BKN250
     FM282300 02004KT P6SM VCTS BKN040CB
     FM290300 05003KT P6SM VCSH SCT040 BKN100=

USA.gov is the U.S. government's official web portal to all federal, state and local government web resources and services.